sensor_id;sensor_type;location;lat;lon;timestamp;P1;durP1;ratioP1;P2;durP2;ratioP2
11344;SDS011;5727;42.600;23.028;2023-01-29T00:00:18;10.73;;;9.00;;
11344;SDS011;5727;42.600;23.028;2023-01-29T00:02:46;8.90;;;7.57;;
11344;SDS011;5727;42.600;23.028;2023-01-29T00:05:13;7.87;;;7.13;;
11344;SDS011;5727;42.600;23.028;2023-01-29T00:07:41;8.80;;;7.93;;
11344;SDS011;5727;42.600;23.028;2023-01-29T00:10:08;8.83;;;7.93;;
11344;SDS011;5727;42.600;23.028;2023-01-29T00:12:36;9.97;;;8.97;;
11344;SDS011;5727;42.600;23.028;2023-01-29T00:15:03;8.60;;;7.67;;
11344;SDS011;5727;42.600;23.028;2023-01-29T00:17:30;9.77;;;8.07;;
11344;SDS011;5727;42.600;23.028;2023-01-29T00:19:56;12.23;;;9.57;;
11344;SDS011;5727;42.600;23.028;2023-01-29T00:22:23;11.30;;;9.60;;
11344;SDS011;5727;42.600;23.028;2023-01-29T00:24:51;10.27;;;8.57;;
11344;SDS011;5727;42.600;23.028;2023-01-29T00:27:18;10.03;;;8.47;;
11344;SDS011;5727;42.600;23.028;2023-01-29T00:29:45;10.17;;;9.10;;
11344;SDS011;5727;42.600;23.028;2023-01-29T00:32:31;9.17;;;8.13;;
11344;SDS011;5727;42.600;23.028;2023-01-29T00:34:58;9.10;;;8.10;;
11344;SDS011;5727;42.600;23.028;2023-01-29T00:37:25;10.30;;;8.30;;
11344;SDS011;5727;42.600;23.028;2023-01-29T00:39:53;8.30;;;7.60;;
11344;SDS011;5727;42.600;23.028;2023-01-29T00:42:19;8.70;;;7.77;;
11344;SDS011;5727;42.600;23.028;2023-01-29T00:45:04;9.80;;;8.80;;
11344;SDS011;5727;42.600;23.028;2023-01-29T00:47:31;9.57;;;7.23;;
11344;SDS011;5727;42.600;23.028;2023-01-29T00:49:58;8.67;;;7.80;;
11344;SDS011;5727;42.600;23.028;2023-01-29T00:52:26;8.10;;;7.30;;
11344;SDS011;5727;42.600;23.028;2023-01-29T00:54:55;8.60;;;7.70;;
11344;SDS011;5727;42.600;23.028;2023-01-29T00:57:24;8.20;;;7.27;;
11344;SDS011;5727;42.600;23.028;2023-01-29T00:59:51;8.97;;;8.17;;
11344;SDS011;5727;42.600;23.028;2023-01-29T01:02:19;8.67;;;7.87;;
11344;SDS011;5727;42.600;23.028;2023-01-29T01:05:04;7.93;;;7.30;;
11344;SDS011;5727;42.600;23.028;2023-01-29T01:07:31;8.87;;;7.97;;
11344;SDS011;5727;42.600;23.028;2023-01-29T01:10:00;9.17;;;8.27;;
11344;SDS011;5727;42.600;23.028;2023-01-29T01:12:44;9.43;;;8.43;;
11344;SDS011;5727;42.600;23.028;2023-01-29T01:15:11;8.63;;;7.83;;
11344;SDS011;5727;42.600;23.028;2023-01-29T01:17:38;9.53;;;8.00;;
11344;SDS011;5727;42.600;23.028;2023-01-29T01:20:05;8.17;;;7.47;;
11344;SDS011;5727;42.600;23.028;2023-01-29T01:22:32;8.70;;;7.90;;
11344;SDS011;5727;42.600;23.028;2023-01-29T01:25:01;9.07;;;8.17;;
11344;SDS011;5727;42.600;23.028;2023-01-29T01:27:27;8.57;;;7.77;;
11344;SDS011;5727;42.600;23.028;2023-01-29T01:29:54;9.77;;;8.17;;
11344;SDS011;5727;42.600;23.028;2023-01-29T01:32:21;9.53;;;8.43;;
11344;SDS011;5727;42.600;23.028;2023-01-29T01:34:48;10.40;;;8.00;;
11344;SDS011;5727;42.600;23.028;2023-01-29T01:37:14;9.50;;;8.60;;
11344;SDS011;5727;42.600;23.028;2023-01-29T01:39:41;10.03;;;8.53;;
11344;SDS011;5727;42.600;23.028;2023-01-29T01:42:14;10.30;;;9.23;;
11344;SDS011;5727;42.600;23.028;2023-01-29T01:44:48;11.30;;;9.40;;
11344;SDS011;5727;42.600;23.028;2023-01-29T01:47:18;9.10;;;8.20;;
11344;SDS011;5727;42.600;23.028;2023-01-29T01:49:47;8.87;;;7.97;;
11344;SDS011;5727;42.600;23.028;2023-01-29T01:52:14;9.53;;;8.40;;
11344;SDS011;5727;42.600;23.028;2023-01-29T01:54:43;9.33;;;7.90;;
11344;SDS011;5727;42.600;23.028;2023-01-29T01:57:11;9.47;;;8.57;;
11344;SDS011;5727;42.600;23.028;2023-01-29T01:59:51;9.90;;;8.63;;
11344;SDS011;5727;42.600;23.028;2023-01-29T02:02:22;9.17;;;7.60;;
11344;SDS011;5727;42.600;23.028;2023-01-29T02:05:07;9.27;;;8.37;;
11344;SDS011;5727;42.600;23.028;2023-01-29T02:07:55;12.27;;;9.73;;
11344;SDS011;5727;42.600;23.028;2023-01-29T02:10:41;8.93;;;8.03;;
11344;SDS011;5727;42.600;23.028;2023-01-29T02:13:11;9.47;;;7.87;;
11344;SDS011;5727;42.600;23.028;2023-01-29T02:15:40;7.97;;;7.17;;
11344;SDS011;5727;42.600;23.028;2023-01-29T02:18:10;8.80;;;7.90;;
11344;SDS011;5727;42.600;23.028;2023-01-29T02:20:38;8.20;;;6.87;;
11344;SDS011;5727;42.600;23.028;2023-01-29T02:23:24;8.33;;;7.53;;
11344;SDS011;5727;42.600;23.028;2023-01-29T02:26:08;8.47;;;7.63;;
11344;SDS011;5727;42.600;23.028;2023-01-29T02:28:48;8.87;;;8.00;;
11344;SDS011;5727;42.600;23.028;2023-01-29T02:31:23;9.60;;;8.10;;
11344;SDS011;5727;42.600;23.028;2023-01-29T02:34:00;9.00;;;7.77;;
11344;SDS011;5727;42.600;23.028;2023-01-29T02:36:38;7.90;;;7.07;;
11344;SDS011;5727;42.600;23.028;2023-01-29T02:39:13;8.83;;;7.93;;
11344;SDS011;5727;42.600;23.028;2023-01-29T02:41:43;11.40;;;8.47;;
11344;SDS011;5727;42.600;23.028;2023-01-29T02:44:19;8.27;;;7.50;;
11344;SDS011;5727;42.600;23.028;2023-01-29T02:46:55;8.40;;;7.53;;
11344;SDS011;5727;42.600;23.028;2023-01-29T02:49:28;8.50;;;7.70;;
11344;SDS011;5727;42.600;23.028;2023-01-29T02:51:59;8.83;;;8.03;;
11344;SDS011;5727;42.600;23.028;2023-01-29T02:54:33;9.53;;;7.63;;
11344;SDS011;5727;42.600;23.028;2023-01-29T02:57:07;8.73;;;7.90;;
11344;SDS011;5727;42.600;23.028;2023-01-29T02:59:43;9.60;;;8.37;;
11344;SDS011;5727;42.600;23.028;2023-01-29T03:02:16;9.70;;;8.37;;
11344;SDS011;5727;42.600;23.028;2023-01-29T03:04:48;8.47;;;7.67;;
11344;SDS011;5727;42.600;23.028;2023-01-29T03:07:21;8.90;;;8.00;;
11344;SDS011;5727;42.600;23.028;2023-01-29T03:10:05;8.30;;;7.60;;
11344;SDS011;5727;42.600;23.028;2023-01-29T03:12:35;9.60;;;7.90;;
11344;SDS011;5727;42.600;23.028;2023-01-29T03:15:07;8.37;;;7.13;;
11344;SDS011;5727;42.600;23.028;2023-01-29T03:17:39;8.37;;;7.50;;
11344;SDS011;5727;42.600;23.028;2023-01-29T03:20:12;9.13;;;8.20;;
11344;SDS011;5727;42.600;23.028;2023-01-29T03:22:43;9.17;;;8.33;;
11344;SDS011;5727;42.600;23.028;2023-01-29T03:25:15;9.27;;;8.37;;
11344;SDS011;5727;42.600;23.028;2023-01-29T03:28:03;7.87;;;7.10;;
11344;SDS011;5727;42.600;23.028;2023-01-29T03:30:51;7.37;;;6.67;;
11344;SDS011;5727;42.600;23.028;2023-01-29T03:33:39;8.20;;;7.40;;
11344;SDS011;5727;42.600;23.028;2023-01-29T03:36:09;7.40;;;6.70;;
11344;SDS011;5727;42.600;23.028;2023-01-29T03:38:40;7.37;;;6.73;;
11344;SDS011;5727;42.600;23.028;2023-01-29T03:41:07;7.03;;;6.33;;
11344;SDS011;5727;42.600;23.028;2023-01-29T03:43:44;8.00;;;7.20;;
11344;SDS011;5727;42.600;23.028;2023-01-29T03:46:20;7.67;;;6.97;;
11344;SDS011;5727;42.600;23.028;2023-01-29T03:48:53;7.63;;;6.77;;
11344;SDS011;5727;42.600;23.028;2023-01-29T03:51:25;7.43;;;6.73;;
11344;SDS011;5727;42.600;23.028;2023-01-29T03:54:00;7.63;;;6.93;;
11344;SDS011;5727;42.600;23.028;2023-01-29T03:56:38;7.07;;;6.50;;
11344;SDS011;5727;42.600;23.028;2023-01-29T03:59:14;6.83;;;6.23;;
11344;SDS011;5727;42.600;23.028;2023-01-29T04:01:48;7.03;;;6.43;;
11344;SDS011;5727;42.600;23.028;2023-01-29T04:04:20;7.27;;;6.67;;
11344;SDS011;5727;42.600;23.028;2023-01-29T04:06:52;6.93;;;5.83;;
11344;SDS011;5727;42.600;23.028;2023-01-29T04:09:24;6.67;;;6.07;;
11344;SDS011;5727;42.600;23.028;2023-01-29T04:12:02;7.30;;;6.70;;
11344;SDS011;5727;42.600;23.028;2023-01-29T04:14:33;7.07;;;6.47;;
11344;SDS011;5727;42.600;23.028;2023-01-29T04:17:02;7.30;;;6.63;;
11344;SDS011;5727;42.600;23.028;2023-01-29T04:19:34;7.50;;;6.83;;
11344;SDS011;5727;42.600;23.028;2023-01-29T04:22:02;6.63;;;6.03;;
11344;SDS011;5727;42.600;23.028;2023-01-29T04:24:32;6.57;;;6.10;;
11344;SDS011;5727;42.600;23.028;2023-01-29T04:27:04;7.03;;;6.33;;
11344;SDS011;5727;42.600;23.028;2023-01-29T04:29:47;5.87;;;5.37;;
11344;SDS011;5727;42.600;23.028;2023-01-29T04:32:25;6.33;;;5.73;;
11344;SDS011;5727;42.600;23.028;2023-01-29T04:34:59;5.93;;;5.53;;
11344;SDS011;5727;42.600;23.028;2023-01-29T04:37:34;5.70;;;5.20;;
11344;SDS011;5727;42.600;23.028;2023-01-29T04:40:09;6.27;;;5.77;;
11344;SDS011;5727;42.600;23.028;2023-01-29T04:42:46;6.50;;;6.00;;
11344;SDS011;5727;42.600;23.028;2023-01-29T04:45:17;6.73;;;6.23;;
11344;SDS011;5727;42.600;23.028;2023-01-29T04:47:56;6.90;;;6.30;;
11344;SDS011;5727;42.600;23.028;2023-01-29T04:50:27;6.63;;;6.13;;
11344;SDS011;5727;42.600;23.028;2023-01-29T04:53:01;7.07;;;6.47;;
11344;SDS011;5727;42.600;23.028;2023-01-29T04:55:37;7.90;;;7.20;;
11344;SDS011;5727;42.600;23.028;2023-01-29T04:58:10;7.43;;;6.83;;
11344;SDS011;5727;42.600;23.028;2023-01-29T05:00:40;6.87;;;6.23;;
11344;SDS011;5727;42.600;23.028;2023-01-29T05:03:11;7.57;;;6.83;;
11344;SDS011;5727;42.600;23.028;2023-01-29T05:05:39;7.60;;;7.00;;
11344;SDS011;5727;42.600;23.028;2023-01-29T05:08:08;6.93;;;6.27;;
11344;SDS011;5727;42.600;23.028;2023-01-29T05:10:38;7.40;;;6.70;;
11344;SDS011;5727;42.600;23.028;2023-01-29T05:13:07;7.20;;;6.60;;
11344;SDS011;5727;42.600;23.028;2023-01-29T05:15:39;6.70;;;5.77;;
11344;SDS011;5727;42.600;23.028;2023-01-29T05:18:11;6.70;;;6.10;;
11344;SDS011;5727;42.600;23.028;2023-01-29T05:20:38;6.00;;;5.53;;
11344;SDS011;5727;42.600;23.028;2023-01-29T05:23:08;8.27;;;6.20;;
11344;SDS011;5727;42.600;23.028;2023-01-29T05:25:40;6.23;;;5.77;;
11344;SDS011;5727;42.600;23.028;2023-01-29T05:28:07;5.97;;;5.57;;
11344;SDS011;5727;42.600;23.028;2023-01-29T05:30:40;6.67;;;6.07;;
11344;SDS011;5727;42.600;23.028;2023-01-29T05:33:12;7.23;;;6.53;;
11344;SDS011;5727;42.600;23.028;2023-01-29T05:35:41;7.37;;;6.57;;
11344;SDS011;5727;42.600;23.028;2023-01-29T05:38:08;7.20;;;6.60;;
11344;SDS011;5727;42.600;23.028;2023-01-29T05:40:40;6.60;;;6.03;;
11344;SDS011;5727;42.600;23.028;2023-01-29T05:43:13;6.70;;;6.10;;
11344;SDS011;5727;42.600;23.028;2023-01-29T05:45:41;6.37;;;5.87;;
11344;SDS011;5727;42.600;23.028;2023-01-29T05:48:08;6.63;;;6.03;;
11344;SDS011;5727;42.600;23.028;2023-01-29T05:50:36;7.43;;;6.77;;
11344;SDS011;5727;42.600;23.028;2023-01-29T05:53:03;6.50;;;5.93;;
11344;SDS011;5727;42.600;23.028;2023-01-29T05:55:30;7.03;;;6.43;;
11344;SDS011;5727;42.600;23.028;2023-01-29T05:57:57;6.43;;;5.93;;
11344;SDS011;5727;42.600;23.028;2023-01-29T06:00:24;7.13;;;6.53;;
11344;SDS011;5727;42.600;23.028;2023-01-29T06:02:51;6.47;;;5.97;;
11344;SDS011;5727;42.600;23.028;2023-01-29T06:05:17;6.77;;;6.17;;
11344;SDS011;5727;42.600;23.028;2023-01-29T06:07:45;6.77;;;6.00;;
11344;SDS011;5727;42.600;23.028;2023-01-29T06:10:12;6.93;;;6.43;;
11344;SDS011;5727;42.600;23.028;2023-01-29T06:12:41;7.60;;;6.33;;
11344;SDS011;5727;42.600;23.028;2023-01-29T06:15:09;9.53;;;7.00;;
11344;SDS011;5727;42.600;23.028;2023-01-29T06:17:36;6.57;;;6.07;;
11344;SDS011;5727;42.600;23.028;2023-01-29T06:20:04;6.17;;;5.67;;
11344;SDS011;5727;42.600;23.028;2023-01-29T06:22:31;6.30;;;5.73;;
11344;SDS011;5727;42.600;23.028;2023-01-29T06:25:00;6.30;;;5.70;;
11344;SDS011;5727;42.600;23.028;2023-01-29T06:27:26;6.50;;;6.00;;
11344;SDS011;5727;42.600;23.028;2023-01-29T06:29:53;6.33;;;5.77;;
11344;SDS011;5727;42.600;23.028;2023-01-29T06:32:20;6.97;;;6.37;;
11344;SDS011;5727;42.600;23.028;2023-01-29T06:34:47;6.83;;;6.23;;
11344;SDS011;5727;42.600;23.028;2023-01-29T06:37:14;9.57;;;7.43;;
11344;SDS011;5727;42.600;23.028;2023-01-29T06:39:41;9.77;;;7.50;;
11344;SDS011;5727;42.600;23.028;2023-01-29T06:42:09;9.70;;;7.50;;
11344;SDS011;5727;42.600;23.028;2023-01-29T06:44:36;8.37;;;7.30;;
11344;SDS011;5727;42.600;23.028;2023-01-29T06:47:03;7.57;;;6.90;;
11344;SDS011;5727;42.600;23.028;2023-01-29T06:49:29;8.77;;;6.73;;
11344;SDS011;5727;42.600;23.028;2023-01-29T06:51:56;11.60;;;8.10;;
11344;SDS011;5727;42.600;23.028;2023-01-29T06:54:23;8.47;;;7.27;;
11344;SDS011;5727;42.600;23.028;2023-01-29T06:56:50;8.30;;;7.07;;
11344;SDS011;5727;42.600;23.028;2023-01-29T06:59:18;8.10;;;6.60;;
11344;SDS011;5727;42.600;23.028;2023-01-29T07:01:45;7.47;;;6.73;;
11344;SDS011;5727;42.600;23.028;2023-01-29T07:04:12;7.07;;;6.33;;
11344;SDS011;5727;42.600;23.028;2023-01-29T07:06:38;6.73;;;6.10;;
11344;SDS011;5727;42.600;23.028;2023-01-29T07:09:05;6.97;;;6.37;;
11344;SDS011;5727;42.600;23.028;2023-01-29T07:11:33;8.37;;;7.50;;
11344;SDS011;5727;42.600;23.028;2023-01-29T07:14:01;8.00;;;7.20;;
11344;SDS011;5727;42.600;23.028;2023-01-29T07:16:30;7.97;;;7.30;;
11344;SDS011;5727;42.600;23.028;2023-01-29T07:18:56;8.77;;;7.17;;
11344;SDS011;5727;42.600;23.028;2023-01-29T07:21:23;8.60;;;7.70;;
11344;SDS011;5727;42.600;23.028;2023-01-29T07:23:50;9.17;;;8.10;;
11344;SDS011;5727;42.600;23.028;2023-01-29T07:26:17;10.07;;;8.00;;
11344;SDS011;5727;42.600;23.028;2023-01-29T07:28:45;9.97;;;8.97;;
11344;SDS011;5727;42.600;23.028;2023-01-29T07:31:12;9.53;;;8.53;;
11344;SDS011;5727;42.600;23.028;2023-01-29T07:33:41;11.37;;;9.70;;
11344;SDS011;5727;42.600;23.028;2023-01-29T07:36:08;10.60;;;9.50;;
11344;SDS011;5727;42.600;23.028;2023-01-29T07:38:36;11.80;;;9.93;;
11344;SDS011;5727;42.600;23.028;2023-01-29T07:41:03;12.27;;;9.63;;
11344;SDS011;5727;42.600;23.028;2023-01-29T07:43:29;13.63;;;11.30;;
11344;SDS011;5727;42.600;23.028;2023-01-29T07:45:59;15.43;;;11.57;;
11344;SDS011;5727;42.600;23.028;2023-01-29T07:48:27;16.70;;;12.50;;
11344;SDS011;5727;42.600;23.028;2023-01-29T07:50:55;14.20;;;11.73;;
11344;SDS011;5727;42.600;23.028;2023-01-29T07:53:22;14.70;;;12.00;;
11344;SDS011;5727;42.600;23.028;2023-01-29T07:55:50;14.00;;;11.40;;
11344;SDS011;5727;42.600;23.028;2023-01-29T07:58:17;15.77;;;12.77;;
11344;SDS011;5727;42.600;23.028;2023-01-29T08:00:45;22.27;;;13.27;;
11344;SDS011;5727;42.600;23.028;2023-01-29T08:03:12;21.13;;;14.73;;
11344;SDS011;5727;42.600;23.028;2023-01-29T08:05:40;14.87;;;12.97;;
11344;SDS011;5727;42.600;23.028;2023-01-29T08:08:08;10.57;;;9.13;;
11344;SDS011;5727;42.600;23.028;2023-01-29T08:10:35;11.20;;;10.00;;
11344;SDS011;5727;42.600;23.028;2023-01-29T08:13:03;11.87;;;9.47;;
11344;SDS011;5727;42.600;23.028;2023-01-29T08:15:30;9.77;;;8.37;;
11344;SDS011;5727;42.600;23.028;2023-01-29T08:17:57;9.77;;;8.77;;
11344;SDS011;5727;42.600;23.028;2023-01-29T08:20:24;11.00;;;9.30;;
11344;SDS011;5727;42.600;23.028;2023-01-29T08:22:57;11.50;;;10.40;;
11344;SDS011;5727;42.600;23.028;2023-01-29T08:25:26;10.50;;;9.43;;
11344;SDS011;5727;42.600;23.028;2023-01-29T08:27:54;7.63;;;7.00;;
11344;SDS011;5727;42.600;23.028;2023-01-29T08:30:21;10.67;;;8.20;;
11344;SDS011;5727;42.600;23.028;2023-01-29T08:32:48;9.43;;;7.60;;
11344;SDS011;5727;42.600;23.028;2023-01-29T08:35:15;8.63;;;7.77;;
11344;SDS011;5727;42.600;23.028;2023-01-29T08:37:42;11.90;;;9.93;;
11344;SDS011;5727;42.600;23.028;2023-01-29T08:40:09;16.07;;;11.80;;
11344;SDS011;5727;42.600;23.028;2023-01-29T08:42:39;16.97;;;12.20;;
11344;SDS011;5727;42.600;23.028;2023-01-29T08:45:07;15.63;;;12.43;;
11344;SDS011;5727;42.600;23.028;2023-01-29T08:47:34;12.67;;;9.23;;
11344;SDS011;5727;42.600;23.028;2023-01-29T08:50:01;9.17;;;8.23;;
11344;SDS011;5727;42.600;23.028;2023-01-29T08:52:29;11.63;;;8.17;;
11344;SDS011;5727;42.600;23.028;2023-01-29T08:54:56;7.80;;;7.00;;
11344;SDS011;5727;42.600;23.028;2023-01-29T08:57:22;7.63;;;7.00;;
11344;SDS011;5727;42.600;23.028;2023-01-29T08:59:50;7.77;;;6.97;;
11344;SDS011;5727;42.600;23.028;2023-01-29T09:02:17;6.93;;;6.23;;
11344;SDS011;5727;42.600;23.028;2023-01-29T09:04:46;6.83;;;6.33;;
11344;SDS011;5727;42.600;23.028;2023-01-29T09:07:15;7.83;;;7.13;;
11344;SDS011;5727;42.600;23.028;2023-01-29T09:09:42;8.20;;;7.37;;
11344;SDS011;5727;42.600;23.028;2023-01-29T09:12:09;7.87;;;7.17;;
11344;SDS011;5727;42.600;23.028;2023-01-29T09:14:36;7.80;;;7.10;;
11344;SDS011;5727;42.600;23.028;2023-01-29T09:17:05;8.67;;;7.87;;
11344;SDS011;5727;42.600;23.028;2023-01-29T09:19:33;7.97;;;7.37;;
11344;SDS011;5727;42.600;23.028;2023-01-29T09:22:01;9.53;;;8.53;;
11344;SDS011;5727;42.600;23.028;2023-01-29T09:24:28;9.73;;;8.73;;
11344;SDS011;5727;42.600;23.028;2023-01-29T09:26:56;10.40;;;8.90;;
11344;SDS011;5727;42.600;23.028;2023-01-29T09:29:23;8.97;;;8.07;;
11344;SDS011;5727;42.600;23.028;2023-01-29T09:31:52;10.20;;;8.47;;
11344;SDS011;5727;42.600;23.028;2023-01-29T09:34:20;11.23;;;8.63;;
11344;SDS011;5727;42.600;23.028;2023-01-29T09:36:47;14.37;;;10.23;;
11344;SDS011;5727;42.600;23.028;2023-01-29T09:39:14;10.30;;;8.93;;
11344;SDS011;5727;42.600;23.028;2023-01-29T09:41:43;9.30;;;8.40;;
11344;SDS011;5727;42.600;23.028;2023-01-29T09:44:18;9.00;;;7.90;;
11344;SDS011;5727;42.600;23.028;2023-01-29T09:46:53;9.73;;;8.60;;
11344;SDS011;5727;42.600;23.028;2023-01-29T09:49:27;10.90;;;9.80;;
11344;SDS011;5727;42.600;23.028;2023-01-29T09:52:00;9.70;;;8.50;;
11344;SDS011;5727;42.600;23.028;2023-01-29T09:54:31;9.60;;;8.60;;
11344;SDS011;5727;42.600;23.028;2023-01-29T09:57:06;10.20;;;9.10;;
11344;SDS011;5727;42.600;23.028;2023-01-29T09:59:40;11.00;;;9.47;;
11344;SDS011;5727;42.600;23.028;2023-01-29T10:02:08;11.80;;;10.47;;
11344;SDS011;5727;42.600;23.028;2023-01-29T10:04:51;14.43;;;10.50;;
11344;SDS011;5727;42.600;23.028;2023-01-29T10:07:37;13.77;;;10.53;;
11344;SDS011;5727;42.600;23.028;2023-01-29T10:10:29;14.13;;;11.47;;
11344;SDS011;5727;42.600;23.028;2023-01-29T10:13:10;11.87;;;10.40;;
11344;SDS011;5727;42.600;23.028;2023-01-29T10:15:46;15.07;;;11.03;;
11344;SDS011;5727;42.600;23.028;2023-01-29T10:18:29;12.97;;;10.57;;
11344;SDS011;5727;42.600;23.028;2023-01-29T10:21:15;9.53;;;8.53;;
11344;SDS011;5727;42.600;23.028;2023-01-29T10:23:52;15.20;;;10.20;;
11344;SDS011;5727;42.600;23.028;2023-01-29T10:26:28;12.67;;;10.87;;
11344;SDS011;5727;42.600;23.028;2023-01-29T10:28:58;8.97;;;8.07;;
11344;SDS011;5727;42.600;23.028;2023-01-29T10:31:28;11.20;;;9.17;;
11344;SDS011;5727;42.600;23.028;2023-01-29T10:33:58;8.07;;;7.03;;
11344;SDS011;5727;42.600;23.028;2023-01-29T10:36:33;9.40;;;8.30;;
11344;SDS011;5727;42.600;23.028;2023-01-29T10:39:09;9.50;;;8.20;;
11344;SDS011;5727;42.600;23.028;2023-01-29T10:41:51;11.50;;;9.20;;
11344;SDS011;5727;42.600;23.028;2023-01-29T10:44:42;11.33;;;9.20;;
11344;SDS011;5727;42.600;23.028;2023-01-29T10:47:22;13.20;;;8.47;;
11344;SDS011;5727;42.600;23.028;2023-01-29T10:50:13;9.63;;;8.63;;
11344;SDS011;5727;42.600;23.028;2023-01-29T10:52:49;11.07;;;8.90;;
11344;SDS011;5727;42.600;23.028;2023-01-29T10:55:34;11.20;;;8.20;;
11344;SDS011;5727;42.600;23.028;2023-01-29T10:58:10;11.77;;;9.03;;
11344;SDS011;5727;42.600;23.028;2023-01-29T11:00:46;11.37;;;9.20;;
11344;SDS011;5727;42.600;23.028;2023-01-29T11:03:17;10.17;;;9.17;;
11344;SDS011;5727;42.600;23.028;2023-01-29T11:05:48;14.80;;;10.63;;
11344;SDS011;5727;42.600;23.028;2023-01-29T11:08:22;10.87;;;9.33;;
11344;SDS011;5727;42.600;23.028;2023-01-29T11:10:54;11.33;;;10.00;;
11344;SDS011;5727;42.600;23.028;2023-01-29T11:13:30;10.77;;;9.23;;
11344;SDS011;5727;42.600;23.028;2023-01-29T11:16:02;11.20;;;10.07;;
11344;SDS011;5727;42.600;23.028;2023-01-29T11:18:37;13.33;;;10.53;;
11344;SDS011;5727;42.600;23.028;2023-01-29T11:21:15;13.00;;;9.63;;
11344;SDS011;5727;42.600;23.028;2023-01-29T11:23:43;13.97;;;10.33;;
11344;SDS011;5727;42.600;23.028;2023-01-29T11:26:10;10.70;;;9.40;;
11344;SDS011;5727;42.600;23.028;2023-01-29T11:28:40;12.37;;;10.53;;
11344;SDS011;5727;42.600;23.028;2023-01-29T11:31:15;13.37;;;11.03;;
11344;SDS011;5727;42.600;23.028;2023-01-29T11:33:44;13.27;;;11.33;;
11344;SDS011;5727;42.600;23.028;2023-01-29T11:36:19;13.27;;;9.73;;
11344;SDS011;5727;42.600;23.028;2023-01-29T11:38:55;13.07;;;11.03;;
11344;SDS011;5727;42.600;23.028;2023-01-29T11:41:41;14.40;;;11.87;;
11344;SDS011;5727;42.600;23.028;2023-01-29T11:44:16;13.23;;;10.40;;
11344;SDS011;5727;42.600;23.028;2023-01-29T11:46:44;11.60;;;10.47;;
11344;SDS011;5727;42.600;23.028;2023-01-29T11:49:14;13.37;;;10.57;;
11344;SDS011;5727;42.600;23.028;2023-01-29T11:51:58;16.17;;;12.50;;
11344;SDS011;5727;42.600;23.028;2023-01-29T11:54:29;15.83;;;11.97;;
11344;SDS011;5727;42.600;23.028;2023-01-29T11:56:59;17.13;;;12.30;;
11344;SDS011;5727;42.600;23.028;2023-01-29T11:59:29;18.33;;;12.63;;
11344;SDS011;5727;42.600;23.028;2023-01-29T12:02:03;18.00;;;12.53;;
11344;SDS011;5727;42.600;23.028;2023-01-29T12:04:40;16.17;;;12.10;;
11344;SDS011;5727;42.600;23.028;2023-01-29T12:07:10;11.27;;;10.03;;
11344;SDS011;5727;42.600;23.028;2023-01-29T12:09:41;13.50;;;10.70;;
11344;SDS011;5727;42.600;23.028;2023-01-29T12:12:17;10.80;;;9.73;;
11344;SDS011;5727;42.600;23.028;2023-01-29T12:15:01;13.03;;;10.27;;
11344;SDS011;5727;42.600;23.028;2023-01-29T12:17:29;14.03;;;11.17;;
11344;SDS011;5727;42.600;23.028;2023-01-29T12:20:03;18.63;;;12.53;;
11344;SDS011;5727;42.600;23.028;2023-01-29T12:22:39;14.27;;;11.10;;
11344;SDS011;5727;42.600;23.028;2023-01-29T12:25:17;14.43;;;10.37;;
11344;SDS011;5727;42.600;23.028;2023-01-29T12:27:50;13.07;;;10.77;;
11344;SDS011;5727;42.600;23.028;2023-01-29T12:30:23;13.20;;;10.30;;
11344;SDS011;5727;42.600;23.028;2023-01-29T12:32:55;11.20;;;9.30;;
11344;SDS011;5727;42.600;23.028;2023-01-29T12:35:29;12.63;;;10.33;;
11344;SDS011;5727;42.600;23.028;2023-01-29T12:37:59;11.07;;;9.30;;
11344;SDS011;5727;42.600;23.028;2023-01-29T12:40:32;11.17;;;9.80;;
11344;SDS011;5727;42.600;23.028;2023-01-29T12:43:04;11.93;;;10.03;;
11344;SDS011;5727;42.600;23.028;2023-01-29T12:45:37;11.80;;;9.77;;
11344;SDS011;5727;42.600;23.028;2023-01-29T12:48:07;9.77;;;8.73;;
11344;SDS011;5727;42.600;23.028;2023-01-29T12:50:37;12.13;;;9.17;;
11344;SDS011;5727;42.600;23.028;2023-01-29T12:53:05;11.90;;;9.97;;
11344;SDS011;5727;42.600;23.028;2023-01-29T12:55:46;13.03;;;10.17;;
11344;SDS011;5727;42.600;23.028;2023-01-29T12:58:20;10.93;;;9.73;;
11344;SDS011;5727;42.600;23.028;2023-01-29T13:00:53;12.70;;;9.77;;
11344;SDS011;5727;42.600;23.028;2023-01-29T13:03:23;11.60;;;9.73;;
11344;SDS011;5727;42.600;23.028;2023-01-29T13:05:59;10.03;;;8.70;;
11344;SDS011;5727;42.600;23.028;2023-01-29T13:08:34;12.13;;;9.37;;
11344;SDS011;5727;42.600;23.028;2023-01-29T13:11:07;12.13;;;9.73;;
11344;SDS011;5727;42.600;23.028;2023-01-29T13:13:41;12.13;;;10.40;;
11344;SDS011;5727;42.600;23.028;2023-01-29T13:16:16;11.27;;;9.63;;
11344;SDS011;5727;42.600;23.028;2023-01-29T13:18:49;12.20;;;9.97;;
11344;SDS011;5727;42.600;23.028;2023-01-29T13:21:19;13.00;;;9.63;;
11344;SDS011;5727;42.600;23.028;2023-01-29T13:23:49;10.53;;;9.23;;
11344;SDS011;5727;42.600;23.028;2023-01-29T13:26:20;15.20;;;10.70;;
11344;SDS011;5727;42.600;23.028;2023-01-29T13:28:50;12.97;;;10.40;;
11344;SDS011;5727;42.600;23.028;2023-01-29T13:31:27;11.13;;;9.77;;
11344;SDS011;5727;42.600;23.028;2023-01-29T13:33:58;9.77;;;8.77;;
11344;SDS011;5727;42.600;23.028;2023-01-29T13:36:35;9.97;;;9.03;;
11344;SDS011;5727;42.600;23.028;2023-01-29T13:39:07;10.03;;;8.67;;
11344;SDS011;5727;42.600;23.028;2023-01-29T13:41:46;11.03;;;9.23;;
11344;SDS011;5727;42.600;23.028;2023-01-29T13:44:23;10.07;;;8.77;;
11344;SDS011;5727;42.600;23.028;2023-01-29T13:46:53;11.40;;;9.37;;
11344;SDS011;5727;42.600;23.028;2023-01-29T13:52:22;11.43;;;9.63;;
11344;SDS011;5727;42.600;23.028;2023-01-29T13:54:57;12.53;;;9.23;;
11344;SDS011;5727;42.600;23.028;2023-01-29T13:57:46;11.07;;;9.83;;
11344;SDS011;5727;42.600;23.028;2023-01-29T14:09:08;9.33;;;8.33;;
11344;SDS011;5727;42.600;23.028;2023-01-29T14:12:36;10.90;;;9.00;;
11344;SDS011;5727;42.600;23.028;2023-01-29T14:15:19;11.50;;;8.67;;
11344;SDS011;5727;42.600;23.028;2023-01-29T14:17:53;11.30;;;9.87;;
11344;SDS011;5727;42.600;23.028;2023-01-29T14:20:25;11.90;;;9.17;;
11344;SDS011;5727;42.600;23.028;2023-01-29T14:22:57;9.93;;;8.80;;
11344;SDS011;5727;42.600;23.028;2023-01-29T14:25:27;11.43;;;8.70;;
11344;SDS011;5727;42.600;23.028;2023-01-29T14:27:59;11.83;;;8.90;;
11344;SDS011;5727;42.600;23.028;2023-01-29T14:30:29;11.43;;;9.33;;
11344;SDS011;5727;42.600;23.028;2023-01-29T14:32:57;12.73;;;10.13;;
11344;SDS011;5727;42.600;23.028;2023-01-29T14:35:26;9.63;;;8.63;;
11344;SDS011;5727;42.600;23.028;2023-01-29T14:37:58;11.67;;;9.57;;
11344;SDS011;5727;42.600;23.028;2023-01-29T14:40:28;12.30;;;9.30;;
11344;SDS011;5727;42.600;23.028;2023-01-29T14:42:59;12.70;;;11.33;;
11344;SDS011;5727;42.600;23.028;2023-01-29T14:45:28;13.00;;;10.53;;
11344;SDS011;5727;42.600;23.028;2023-01-29T14:50:57;15.43;;;11.70;;
11344;SDS011;5727;42.600;23.028;2023-01-29T14:56:21;13.67;;;10.87;;
11344;SDS011;5727;42.600;23.028;2023-01-29T14:58:55;15.03;;;11.27;;
11344;SDS011;5727;42.600;23.028;2023-01-29T15:01:29;13.30;;;10.80;;
11344;SDS011;5727;42.600;23.028;2023-01-29T15:04:01;16.00;;;11.80;;
11344;SDS011;5727;42.600;23.028;2023-01-29T15:06:31;17.13;;;12.17;;
11344;SDS011;5727;42.600;23.028;2023-01-29T15:09:02;15.53;;;11.67;;
11344;SDS011;5727;42.600;23.028;2023-01-29T15:11:36;13.77;;;10.90;;
11344;SDS011;5727;42.600;23.028;2023-01-29T15:14:15;15.50;;;11.90;;
11344;SDS011;5727;42.600;23.028;2023-01-29T15:16:50;14.33;;;10.33;;
11344;SDS011;5727;42.600;23.028;2023-01-29T15:19:25;13.67;;;10.20;;
11344;SDS011;5727;42.600;23.028;2023-01-29T15:22:03;14.60;;;10.00;;